createdAt,value
2023-03-02T00:07:46.244Z,69.07
2023-03-02T00:17:53.515Z,69.23
2023-03-02T00:28:00.770Z,69.33
2023-03-02T00:38:07.514Z,69.66
2023-03-02T00:48:14.577Z,69.74
2023-03-02T00:58:21.630Z,70.14
2023-03-02T01:08:28.783Z,70.23
2023-03-02T01:18:38.900Z,70.32
2023-03-02T01:28:46.294Z,70.47
2023-03-02T01:38:54.475Z,70.53
2023-03-02T01:49:05.410Z,70.69
2023-03-02T01:59:10.045Z,70.92
2023-03-02T02:09:19.542Z,70.94
2023-03-02T02:19:28.250Z,71.26
2023-03-02T02:29:40.165Z,71.23
2023-03-02T02:39:48.556Z,71.55
2023-03-02T02:49:55.845Z,71.66
2023-03-02T03:00:06.724Z,71.84
2023-03-02T03:10:12.035Z,71.93
2023-03-02T03:20:20.642Z,71.83
2023-03-02T03:30:27.887Z,72.07
2023-03-02T03:40:36.028Z,72.20
2023-03-02T03:50:43.556Z,72.27
2023-03-02T04:00:49.688Z,72.28
2023-03-02T04:10:57.087Z,72.22
2023-03-02T04:21:04.231Z,72.48
2023-03-02T04:31:11.958Z,72.71
2023-03-02T04:41:19.663Z,73.05
2023-03-02T04:51:30.145Z,72.77
2023-03-02T05:01:37.612Z,73.07
2023-03-02T05:11:45.028Z,73.09
2023-03-02T05:21:51.976Z,73.11
2023-03-02T05:31:59.222Z,73.31
2023-03-02T05:42:06.136Z,73.31
2023-03-02T05:52:13.283Z,73.21
2023-03-02T06:02:20.639Z,73.44
2023-03-02T06:12:28.531Z,73.66
2023-03-02T06:22:35.645Z,73.76
2023-03-02T06:32:43.473Z,74.43
2023-03-02T06:42:50.710Z,74.31
2023-03-02T07:03:04.919Z,73.11
2023-03-02T07:13:12.718Z,72.74
2023-03-02T07:23:24.800Z,72.29
2023-03-02T07:33:32.280Z,71.99
2023-03-02T07:43:40.197Z,71.85
2023-03-02T07:53:46.693Z,71.94
2023-03-02T08:03:54.013Z,71.78
2023-03-02T08:14:02.655Z,71.25
2023-03-02T08:24:07.596Z,69.85
2023-03-02T08:34:14.753Z,69.47
2023-03-02T08:44:22.394Z,69.39
2023-03-02T08:54:29.599Z,69.27
2023-03-02T09:04:36.407Z,68.48
2023-03-02T09:14:43.584Z,68.34
2023-03-02T09:24:50.983Z,67.79
2023-03-02T09:34:58.141Z,67.31
2023-03-02T09:45:13.916Z,67.33
2023-03-02T09:55:20.980Z,66.63
2023-03-02T10:05:26.117Z,66.91
2023-03-02T10:15:32.415Z,66.01
2023-03-02T10:25:41.443Z,65.92
2023-03-02T10:35:48.766Z,65.52
2023-03-02T10:46:01.978Z,65.11
2023-03-02T10:56:06.901Z,65.34
2023-03-02T11:06:12.529Z,65.16
2023-03-02T11:16:25.249Z,64.95
2023-03-02T11:26:35.577Z,65.08
2023-03-02T11:36:45.647Z,64.74
2023-03-02T11:46:53.756Z,63.98
2023-03-02T11:57:01.162Z,63.95
2023-03-02T12:07:18.935Z,64.48
2023-03-02T12:17:24.356Z,64.02
2023-03-02T12:27:36.109Z,64.27
2023-03-02T12:37:42.857Z,64.31
2023-03-02T12:47:58.316Z,64.39
2023-03-02T12:58:07.418Z,64.14
2023-03-02T13:08:17.671Z,64.37
2023-03-02T13:18:24.686Z,64.19
2023-03-02T13:28:34.909Z,64.38
2023-03-02T13:38:50.108Z,64.29
2023-03-02T13:49:09.245Z,64.16
2023-03-02T13:59:20.117Z,64.07
2023-03-02T14:09:27.386Z,64.08
2023-03-02T14:19:34.713Z,64.27
2023-03-02T14:29:41.834Z,64.58
2023-03-02T14:39:52.366Z,64.28
2023-03-02T14:50:01.267Z,64.41
2023-03-02T15:00:15.503Z,64.40
2023-03-02T15:10:25.302Z,64.73
2023-03-02T15:20:32.205Z,64.60
2023-03-02T15:30:38.617Z,64.85
2023-03-02T15:40:46.376Z,65.50
2023-03-02T15:50:57.698Z,65.56
2023-03-02T16:01:08.084Z,65.81
2023-03-02T16:11:18.721Z,66.17
2023-03-02T16:21:26.102Z,66.36
2023-03-02T16:31:37.817Z,66.85
2023-03-02T16:41:46.411Z,67.54
2023-03-02T16:51:58.400Z,67.69
2023-03-02T17:02:05.750Z,67.99
2023-03-02T17:12:12.993Z,68.26
2023-03-02T17:22:19.101Z,68.57
2023-03-02T17:32:26.576Z,68.90
2023-03-02T17:42:33.109Z,69.10
2023-03-02T17:52:40.698Z,69.44
2023-03-02T18:02:48.061Z,69.91
2023-03-02T18:12:54.833Z,70.21
2023-03-02T18:23:01.030Z,70.46
2023-03-02T18:33:08.500Z,70.78
2023-03-02T18:43:16.567Z,71.09
2023-03-02T18:53:22.783Z,71.30
2023-03-02T19:03:31.298Z,71.09
2023-03-02T19:13:38.860Z,71.45
2023-03-02T19:23:46.629Z,72.02
2023-03-02T19:34:18.889Z,72.22
2023-03-02T19:44:25.625Z,72.23
2023-03-02T19:54:33.014Z,72.37
2023-03-02T20:04:40.334Z,72.56
2023-03-02T20:14:47.279Z,72.87
2023-03-02T20:24:54.667Z,73.15
2023-03-02T20:35:03.490Z,73.06
2023-03-02T20:45:13.241Z,73.39
2023-03-02T20:55:21.067Z,73.69
2023-03-02T21:05:29.799Z,73.76
2023-03-02T21:15:38.196Z,74.03
2023-03-02T21:25:45.145Z,73.95
2023-03-02T21:35:52.182Z,74.12
2023-03-02T21:45:58.702Z,74.05
2023-03-02T21:56:05.326Z,74.29
2023-03-02T22:06:13.326Z,74.70
2023-03-02T22:16:22.206Z,74.87
2023-03-02T22:26:29.525Z,74.99
2023-03-02T22:36:37.865Z,75.01
2023-03-02T22:46:45.336Z,75.07
2023-03-02T22:56:52.043Z,75.02
2023-03-02T23:07:01.213Z,75.34
2023-03-02T23:17:09.102Z,75.12
2023-03-02T23:27:16.208Z,75.58
2023-03-02T23:37:23.525Z,75.48
2023-03-02T23:47:30.888Z,75.50
2023-03-02T23:57:38.118Z,75.87
